Time;durP1;ratioP1;P1;durP2;ratioP2;P2;SDS_P1;SDS_P2;PMS_P1;PMS_P2;Temp;Humidity;BMP_temperature;BMP_pressure;BME280_temperature;BME280_humidity;BME280_pressure;Samples;Min_cycle;Max_cycle;Signal;HPM_P1;HPM_P2
2023/08/09 00:02:00;;;;;;;4.57;3.60;;;;;;;13.31;100.00;100992.69;5091480;28;20281;-82
2023/08/09 00:04:25;;;;;;;5.00;3.63;;;;;;;13.35;100.00;101000.28;5072915;28;20051;-79
2023/08/09 00:06:51;;;;;;;4.60;3.78;;;;;;;13.32;100.00;100993.50;5073282;28;20290;-80
2023/08/09 00:12:37;;;;;;;7.15;3.67;;;;;;;13.40;100.00;101003.09;5091560;28;20080;-80
2023/08/09 00:18:24;;;;;;;4.22;3.53;;;;;;;13.35;100.00;101011.84;5091882;28;20498;-81
2023/08/09 00:20:49;;;;;;;5.88;3.47;;;;;;;13.33;100.00;101014.75;5091279;28;20023;-81
2023/08/09 00:23:15;;;;;;;4.82;4.13;;;;;;;13.36;100.00;101018.03;5072253;28;20071;-82
2023/08/09 00:25:41;;;;;;;6.37;3.90;;;;;;;13.26;100.00;100997.88;5093992;28;20034;-83
2023/08/09 00:28:07;;;;;;;4.65;3.22;;;;;;;13.25;100.00;101012.34;5095024;28;20750;-83
2023/08/09 00:30:32;;;;;;;5.32;3.88;;;;;;;13.28;100.00;101013.78;5094037;28;20047;-83
2023/08/09 00:32:58;;;;;;;14.48;4.88;;;;;;;13.24;100.00;101008.03;5094761;28;20023;-82
2023/08/09 00:35:23;;;;;;;5.68;3.28;;;;;;;13.27;100.00;101001.38;5094837;28;20069;-82
2023/08/09 00:37:48;;;;;;;5.63;3.75;;;;;;;13.22;100.00;101004.75;5094057;28;20060;-81
2023/08/09 00:40:13;;;;;;;4.37;3.30;;;;;;;13.15;100.00;101001.31;5094671;28;20016;-81
2023/08/09 00:46:01;;;;;;;6.32;3.40;;;;;;;13.22;100.00;101015.50;5094719;28;20047;-81
2023/08/09 00:51:48;;;;;;;5.00;3.42;;;;;;;13.21;100.00;101021.09;5094377;28;20039;-82
2023/08/09 00:57:35;;;;;;;4.55;3.50;;;;;;;13.17;100.00;101012.69;5094804;28;20089;-80
2023/08/09 01:00:00;;;;;;;4.68;3.65;;;;;;;13.17;100.00;101028.78;5094594;28;20468;-80
2023/08/09 01:02:26;;;;;;;4.90;3.75;;;;;;;13.17;100.00;101036.00;5076368;28;20055;-80
2023/08/09 01:04:52;;;;;;;5.28;3.85;;;;;;;13.13;100.00;101024.06;5075546;28;20131;-80
2023/08/09 01:10:46;;;;;;;5.53;3.83;;;;;;;13.13;100.00;101024.91;5094262;28;20133;-79
2023/08/09 01:23:15;;;;;;;6.43;4.90;;;;;;;13.19;100.00;101029.38;5094383;28;20042;-79
2023/08/09 01:29:02;;;;;;;5.97;3.95;;;;;;;13.12;100.00;101033.19;5093871;28;20035;-80
2023/08/09 01:34:49;;;;;;;6.50;4.47;;;;;;;13.01;100.00;101026.72;5094184;28;20047;-79
2023/08/09 01:37:22;;;;;;;5.32;4.28;;;;;;;12.97;100.00;101028.19;5093221;28;20028;-80
2023/08/09 01:39:50;;;;;;;5.30;4.18;;;;;;;12.88;100.00;101022.31;5091525;28;20487;-79
2023/08/09 01:42:16;;;;;;;6.55;4.40;;;;;;;12.87;100.00;101035.97;5093279;28;20068;-79
2023/08/09 01:52:07;;;;;;;7.03;4.32;;;;;;;12.62;100.00;101044.88;5093844;28;20396;-78
2023/08/09 01:57:54;;;;;;;7.35;4.00;;;;;;;12.55;100.00;101048.69;5093541;28;20051;-79
2023/08/09 02:03:41;;;;;;;6.47;4.07;;;;;;;12.37;100.00;101041.41;5093692;28;20054;-79
2023/08/09 02:06:06;;;;;;;5.97;4.23;;;;;;;12.35;100.00;101049.69;5093127;28;20028;-79
2023/08/09 02:08:32;;;;;;;6.43;4.10;;;;;;;12.28;100.00;101050.78;5092279;28;20282;-79
2023/08/09 02:14:19;;;;;;;6.82;4.03;;;;;;;12.12;100.00;101049.47;5092973;28;20415;-79
2023/08/09 02:23:38;;;;;;;5.90;4.15;;;;;;;11.94;100.00;101055.63;5093122;28;20646;-79
2023/08/09 02:26:05;;;;;;;7.18;4.00;;;;;;;11.89;100.00;101054.63;5092567;28;20111;-79
2023/08/09 02:28:30;;;;;;;8.60;3.78;;;;;;;11.79;100.00;101055.09;5073777;28;20044;-80
2023/08/09 02:41:42;;;;;;;16.85;4.68;;;;;;;11.71;100.00;101074.91;5092910;28;20051;-80
2023/08/09 02:44:07;;;;;;;19.25;3.70;;;;;;;11.67;100.00;101079.03;5091800;28;20043;-80
2023/08/09 02:49:54;;;;;;;14.50;3.90;;;;;;;11.52;100.00;101085.72;5092439;28;20069;-80
2023/08/09 02:52:20;;;;;;;8.32;3.35;;;;;;;11.47;100.00;101086.34;5092532;28;20020;-80
2023/08/09 02:58:07;;;;;;;4.40;2.88;;;;;;;11.44;100.00;101089.47;5092455;28;20031;-80
2023/08/09 03:03:54;;;;;;;30.42;4.47;;;;;;;11.32;100.00;101094.69;5092602;28;20043;-80
2023/08/09 03:09:41;;;;;;;23.95;4.57;;;;;;;11.21;100.00;101094.50;5092727;28;20063;-79
2023/08/09 03:15:28;;;;;;;13.15;4.03;;;;;;;11.25;100.00;101104.56;5092072;28;20289;-79
2023/08/09 03:17:53;;;;;;;11.68;4.13;;;;;;;11.23;100.00;101103.16;5091231;28;20036;-79
2023/08/09 03:20:19;;;;;;;8.40;3.38;;;;;;;11.23;100.00;101103.16;5073992;28;20115;-79
2023/08/09 03:26:05;;;;;;;14.85;4.25;;;;;;;11.08;100.00;101100.75;5092122;28;20046;-78
2023/08/09 03:28:31;;;;;;;5.53;3.35;;;;;;;11.07;100.00;101104.44;5091632;28;20036;-78
2023/08/09 03:30:57;;;;;;;9.27;4.43;;;;;;;11.05;100.00;101101.16;5091647;28;20480;-78
2023/08/09 03:33:23;;;;;;;8.77;4.25;;;;;;;11.04;100.00;101105.69;5090924;28;20114;-79
2023/08/09 03:39:11;;;;;;;14.15;5.03;;;;;;;11.05;100.00;101118.03;5091824;28;20070;-79
2023/08/09 03:41:36;;;;;;;6.68;4.60;;;;;;;11.04;100.00;101115.56;5073538;28;20464;-79
2023/08/09 03:47:23;;;;;;;10.73;5.88;;;;;;;11.10;100.00;101130.78;5091749;28;20383;-79
2023/08/09 03:53:10;;;;;;;10.75;6.03;;;;;;;11.10;100.00;101128.13;5091931;28;20066;-80
2023/08/09 03:55:36;;;;;;;9.50;5.35;;;;;;;11.09;100.00;101138.00;5073477;28;20063;-80
2023/08/09 04:01:22;;;;;;;8.57;5.90;;;;;;;10.98;100.00;101148.50;5091689;28;20039;-80
2023/08/09 04:07:09;;;;;;;11.30;5.72;;;;;;;11.00;100.00;101151.81;5091231;28;20828;-80
2023/08/09 04:09:35;;;;;;;9.40;5.70;;;;;;;10.93;100.00;101154.47;5091052;28;20025;-80
2023/08/09 04:12:01;;;;;;;8.80;5.88;;;;;;;10.94;100.00;101160.66;5091045;28;20042;-79
2023/08/09 04:14:27;;;;;;;9.05;6.03;;;;;;;10.93;100.00;101159.84;5090279;28;20032;-79
2023/08/09 04:20:14;;;;;;;7.35;5.03;;;;;;;10.92;100.00;101160.03;5091316;28;20105;-79
2023/08/09 04:30:04;;;;;;;7.65;4.97;;;;;;;10.90;100.00;101167.47;5090950;28;20034;-78
2023/08/09 04:35:51;;;;;;;9.77;7.03;;;;;;;11.03;100.00;101162.09;5091219;28;20051;-78
2023/08/09 04:38:16;;;;;;;14.40;6.60;;;;;;;11.13;100.00;101162.47;5091034;28;20450;-78
2023/08/09 04:40:42;;;;;;;8.33;6.40;;;;;;;11.18;100.00;101151.97;5072616;28;20354;-79
2023/08/09 04:43:07;;;;;;;9.03;7.03;;;;;;;11.23;100.00;101152.16;5072029;28;20300;-79
2023/08/09 04:48:54;;;;;;;10.52;8.23;;;;;;;11.55;100.00;101169.13;5090892;28;20702;-78
2023/08/09 04:51:19;;;;;;;12.40;8.63;;;;;;;11.72;100.00;101166.81;5090734;28;20102;-78
2023/08/09 04:53:45;;;;;;;12.75;9.10;;;;;;;11.88;100.00;101174.38;5090598;28;20081;-78
2023/08/09 04:56:10;;;;;;;9.93;7.87;;;;;;;12.07;100.00;101180.66;5089706;28;20476;-78
2023/08/09 04:58:36;;;;;;;10.73;7.88;;;;;;;12.25;100.00;101172.72;5090586;28;20349;-78
2023/08/09 05:01:01;;;;;;;12.40;8.95;;;;;;;12.47;100.00;101181.22;5090475;28;20498;-79
2023/08/09 05:03:27;;;;;;;14.20;10.07;;;;;;;12.61;100.00;101172.03;5089673;28;20052;-79
2023/08/09 05:09:14;;;;;;;14.32;10.52;;;;;;;13.23;100.00;101190.88;5090766;28;20047;-78
2023/08/09 05:15:01;;;;;;;16.35;11.20;;;;;;;14.01;100.00;101184.75;5094183;28;20589;-77
2023/08/09 05:20:48;;;;;;;13.32;9.40;;;;;;;14.54;100.00;101185.66;5094020;28;20039;-79
2023/08/09 05:26:35;;;;;;;15.57;9.50;;;;;;;15.08;100.00;101189.06;5078761;28;20304;-79
2023/08/09 05:32:22;;;;;;;16.15;10.48;;;;;;;15.65;100.00;101218.91;5093831;28;20058;-80
2023/08/09 05:38:09;;;;;;;15.45;10.35;;;;;;;16.13;100.00;101233.84;5092551;28;20284;-78
2023/08/09 05:43:55;;;;;;;13.85;10.68;;;;;;;16.45;100.00;101228.75;5093374;28;20826;-78
2023/08/09 05:49:42;;;;;;;17.40;12.93;;;;;;;16.01;100.00;101238.50;5093577;28;20166;-78
2023/08/09 05:52:08;;;;;;;19.45;12.77;;;;;;;15.69;100.00;101238.94;5074491;28;20495;-78
2023/08/09 05:57:54;;;;;;;18.67;13.40;;;;;;;15.14;100.00;101236.63;5093427;28;20272;-78
2023/08/09 06:03:41;;;;;;;19.80;14.32;;;;;;;15.26;100.00;101241.16;5093082;28;20415;-79
2023/08/09 06:06:07;;;;;;;22.23;15.57;;;;;;;15.39;100.00;101257.94;5092127;28;20528;-79
2023/08/09 06:11:54;;;;;;;22.83;16.23;;;;;;;14.98;100.00;101263.41;5081117;28;20093;-76
2023/08/09 06:17:41;;;;;;;27.65;17.75;;;;;;;14.61;100.00;101276.22;5092943;28;20043;-77
2023/08/09 06:23:28;;;;;;;29.40;17.27;;;;;;;14.30;100.00;101282.63;5092840;28;20054;-78
2023/08/09 06:29:15;;;;;;;28.85;19.30;;;;;;;14.28;100.00;101296.31;5093157;28;20057;-78
2023/08/09 06:31:42;;;;;;;27.98;18.50;;;;;;;14.50;100.00;101294.00;5074074;28;20039;-77
2023/08/09 06:34:08;;;;;;;31.13;18.33;;;;;;;14.77;100.00;101287.16;5092808;28;20389;-78
2023/08/09 06:39:55;;;;;;;25.15;18.02;;;;;;;15.25;100.00;101294.25;5092716;28;20034;-77
2023/08/09 06:45:42;;;;;;;28.67;17.83;;;;;;;15.47;100.00;101298.00;5080778;28;20051;-79
2023/08/09 06:51:29;;;;;;;29.50;16.58;;;;;;;16.01;100.00;101303.22;5092851;28;20039;-77
2023/08/09 06:57:16;;;;;;;23.70;16.27;;;;;;;16.04;100.00;101317.06;5092430;28;20039;-78
2023/08/09 07:03:03;;;;;;;28.55;17.50;;;;;;;16.16;100.00;101325.09;5092465;28;20339;-79
2023/08/09 07:08:53;;;;;;;20.42;13.73;;;;;;;16.66;100.00;101327.19;5092606;28;20137;-80
2023/08/09 07:14:40;;;;;;;20.02;14.98;;;;;;;16.75;100.00;101333.00;5077884;28;20042;-79
2023/08/09 07:20:28;;;;;;;22.17;15.90;;;;;;;16.83;100.00;101336.16;5092369;28;20120;-79
2023/08/09 07:22:53;;;;;;;21.52;15.45;;;;;;;16.87;100.00;101340.00;5073414;28;20531;-79
2023/08/09 07:28:40;;;;;;;17.33;13.77;;;;;;;17.45;100.00;101332.56;5092190;28;20323;-79
2023/08/09 07:34:27;;;;;;;18.17;14.40;;;;;;;19.59;100.00;101344.69;5091102;28;20350;-80
2023/08/09 07:36:52;;;;;;;17.90;13.97;;;;;;;20.47;100.00;101347.59;5073148;28;20460;-81
2023/08/09 07:42:40;;;;;;;15.15;11.30;;;;;;;20.92;100.00;101348.78;5091581;28;20276;-80
2023/08/09 07:48:27;;;;;;;15.27;11.93;;;;;;;19.64;100.00;101365.63;5077044;28;20047;-80
2023/08/09 07:54:14;;;;;;;16.95;12.27;;;;;;;20.08;100.00;101361.53;5091612;28;20787;-79
2023/08/09 08:00:05;;;;;;;14.88;11.48;;;;;;;21.81;100.00;101372.69;5080204;28;20564;-80
2023/08/09 08:05:52;;;;;;;14.40;11.57;;;;;;;23.46;100.00;101386.00;5091591;28;20416;-81
2023/08/09 08:11:40;;;;;;;13.18;11.13;;;;;;;24.61;100.00;101378.72;5091530;28;20630;-81
2023/08/09 08:14:06;;;;;;;12.98;10.93;;;;;;;24.98;94.54;101386.09;5090491;28;20051;-80
2023/08/09 08:19:53;;;;;;;13.45;10.98;;;;;;;25.43;92.10;101389.19;5076893;28;20050;-80
2023/08/09 08:25:41;;;;;;;12.25;10.25;;;;;;;24.05;100.00;101404.81;5091270;28;20313;-80
2023/08/09 08:31:28;;;;;;;13.00;10.88;;;;;;;24.10;97.80;101401.19;5079240;28;20482;-79
2023/08/09 08:33:54;;;;;;;13.67;10.77;;;;;;;24.50;98.41;101388.16;5090342;28;20115;-80
2023/08/09 08:39:44;;;;;;;12.48;10.13;;;;;;;24.41;92.24;101401.66;5091511;28;20042;-81
2023/08/09 08:42:10;;;;;;;13.13;10.82;;;;;;;24.96;97.85;101397.34;5091113;28;20032;-80
2023/08/09 08:44:35;;;;;;;11.68;9.70;;;;;;;27.13;91.16;101411.81;5072951;28;20385;-81
2023/08/09 08:47:01;;;;;;;11.20;8.93;;;;;;;28.16;79.24;101421.81;5075514;28;20067;-81
2023/08/09 08:52:49;;;;;;;11.55;9.75;;;;;;;28.55;79.51;101435.53;5094873;28;20047;-81
2023/08/09 08:58:36;;;;;;;9.55;8.20;;;;;;;29.58;71.17;101420.19;5095025;28;20081;-80
2023/08/09 09:04:23;;;;;;;10.63;8.88;;;;;;;30.60;62.26;101438.56;5094673;28;20108;-81
2023/08/09 09:10:12;;;;;;;11.02;8.20;;;;;;;28.73;69.19;101433.63;5094757;28;20082;-80
2023/08/09 09:12:38;;;;;;;10.90;7.95;;;;;;;28.81;68.17;101438.31;5093109;28;20035;-80
2023/08/09 09:15:06;;;;;;;13.85;8.93;;;;;;;27.83;71.72;101427.66;5094233;28;20047;-85
2023/08/09 09:20:53;;;;;;;11.75;9.48;;;;;;;29.41;65.94;101439.47;5094563;28;20050;-80
2023/08/09 09:26:53;;;;;;;13.00;10.00;;;;;;;30.18;68.14;101449.53;5094103;28;20700;-80
2023/08/09 09:29:18;;;;;;;16.27;9.27;;;;;;;30.19;58.00;101451.16;5092205;28;20122;-80
2023/08/09 09:35:06;;;;;;;10.55;9.27;;;;;;;28.09;65.21;101447.03;5094254;28;20051;-79
2023/08/09 09:40:53;;;;;;;14.77;11.35;;;;;;;26.93;72.14;101451.53;5093174;28;20584;-80
2023/08/09 09:46:41;;;;;;;13.65;11.40;;;;;;;25.77;74.69;101446.47;5093952;28;20082;-82
2023/08/09 09:49:06;;;;;;;14.90;10.80;;;;;;;24.95;80.67;101444.97;5085490;28;20491;-80
2023/08/09 09:54:56;;;;;;;15.23;10.90;;;;;;;24.11;85.17;101441.09;5093794;28;20630;-80
2023/08/09 10:00:49;;;;;;;14.63;10.30;;;;;;;22.82;94.31;101434.19;5093694;28;20067;-80
2023/08/09 10:06:42;;;;;;;15.57;12.63;;;;;;;23.04;91.68;101438.41;5093537;28;20058;-79
2023/08/09 10:12:30;;;;;;;14.48;12.40;;;;;;;22.58;90.36;101430.47;5079238;28;20498;-80
2023/08/09 10:18:32;;;;;;;16.15;12.45;;;;;;;23.07;97.28;101427.75;5093530;28;20039;-80
2023/08/09 10:24:19;;;;;;;14.63;12.13;;;;;;;22.54;99.26;101424.75;5092501;28;20051;-81
2023/08/09 10:30:09;;;;;;;14.77;12.20;;;;;;;23.08;92.92;101437.56;5093458;28;20082;-80
2023/08/09 10:35:56;;;;;;;12.73;10.20;;;;;;;23.27;91.63;101434.19;5093134;28;20143;-80
2023/08/09 10:45:34;;;;;;;10.05;9.05;;;;;;;23.79;89.64;101453.44;5093084;28;20043;-81
2023/08/09 10:51:22;;;;;;;10.80;7.20;;;;;;;24.04;81.59;101451.53;5093100;28;20510;-79
2023/08/09 10:54:03;;;;;;;9.20;6.88;;;;;;;23.72;82.29;101452.94;5091046;28;20073;-80
2023/08/09 11:00:02;;;;;;;7.15;6.45;;;;;;;22.88;89.25;101443.19;5092448;28;20093;-79
2023/08/09 11:05:49;;;;;;;7.95;7.22;;;;;;;25.28;80.33;101447.78;5092478;28;20081;-77
2023/08/09 11:11:37;;;;;;;10.70;7.00;;;;;;;24.76;78.24;101451.53;5092763;28;20073;-80
2023/08/09 11:14:03;;;;;;;7.45;6.45;;;;;;;24.35;81.91;101447.41;5091515;28;20032;-80
2023/08/09 11:16:29;;;;;;;7.28;5.95;;;;;;;24.30;79.17;101450.19;5092504;28;20158;-79
2023/08/09 11:19:17;;;;;;;6.80;5.80;;;;;;;25.64;77.37;101440.59;5073486;28;20043;-78
2023/08/09 11:21:45;;;;;;;8.02;6.18;;;;;;;26.44;70.31;101453.13;5092275;28;20055;-79
2023/08/09 11:27:33;;;;;;;6.30;4.90;;;;;;;27.62;59.56;101459.56;5092294;28;20043;-78
2023/08/09 11:33:19;;;;;;;6.07;4.75;;;;;;;25.71;69.17;101450.38;5092326;28;20431;-79
2023/08/09 11:39:08;;;;;;;4.70;3.90;;;;;;;25.03;69.37;101454.47;5091876;28;20293;-81
2023/08/09 11:44:55;;;;;;;7.68;4.30;;;;;;;24.48;74.98;101451.34;5092005;28;20052;-82
2023/08/09 11:50:42;;;;;;;6.18;4.18;;;;;;;25.24;72.24;101463.19;5092134;28;20323;-84
2023/08/09 11:59:54;;;;;;;6.82;4.50;;;;;;;26.14;68.62;101470.97;5092082;28;20051;-81
2023/08/09 12:02:26;;;;;;;4.78;4.28;;;;;;;26.60;66.51;101480.22;5090674;28;20389;-82
2023/08/09 12:08:13;;;;;;;7.32;4.85;;;;;;;26.55;62.39;101479.22;5091700;28;20031;-82
2023/08/09 12:14:00;;;;;;;5.47;4.60;;;;;;;24.82;74.93;101483.19;5091956;28;20600;-81
2023/08/09 12:19:48;;;;;;;9.13;6.43;;;;;;;24.06;74.97;101482.13;5091523;28;20039;-82
2023/08/09 12:25:34;;;;;;;7.93;6.75;;;;;;;23.92;77.16;101476.50;5095838;28;20043;-80
2023/08/09 12:31:21;;;;;;;8.15;6.50;;;;;;;22.98;81.80;101475.84;5097143;28;20274;-81
2023/08/09 12:37:11;;;;;;;7.80;5.78;;;;;;;22.48;90.40;101491.28;5097475;28;20277;-81
2023/08/09 12:42:58;;;;;;;5.40;4.10;;;;;;;25.07;73.72;101490.25;5096827;28;20092;-81
2023/08/09 12:48:46;;;;;;;4.10;3.40;;;;;;;26.07;69.20;101497.97;5097472;28;20181;-80
2023/08/09 12:51:12;;;;;;;4.85;3.00;;;;;;;26.60;65.87;101494.78;5095841;28;20113;-81
2023/08/09 12:56:59;;;;;;;5.07;2.90;;;;;;;27.46;65.72;101498.34;5095688;28;20442;-80
2023/08/09 12:59:25;;;;;;;7.97;2.90;;;;;;;28.00;63.69;101507.47;5077570;28;20016;-81
2023/08/09 13:05:12;;;;;;;4.78;2.60;;;;;;;26.49;62.48;101501.59;5096081;28;20289;-81
2023/08/09 13:07:38;;;;;;;3.45;2.55;;;;;;;26.10;64.28;101502.03;5077443;28;20479;-80
2023/08/09 13:10:03;;;;;;;6.35;2.80;;;;;;;25.82;70.83;101501.97;5096196;28;20040;-80
2023/08/09 13:15:51;;;;;;;5.88;2.58;;;;;;;23.73;71.06;101511.13;5096209;28;20046;-80
2023/08/09 13:21:38;;;;;;;6.85;2.83;;;;;;;22.28;78.60;101513.16;5094532;28;20379;-79
2023/08/09 13:27:25;;;;;;;5.85;2.60;;;;;;;23.35;75.84;101499.88;5095051;28;20077;-82
2023/08/09 13:33:12;;;;;;;6.60;2.63;;;;;;;24.66;68.28;101508.00;5093935;28;20104;-80
2023/08/09 13:38:59;;;;;;;7.03;2.92;;;;;;;24.08;72.32;101518.19;5095303;28;20502;-81
2023/08/09 13:44:47;;;;;;;6.93;2.80;;;;;;;23.21;71.99;101525.38;5095391;28;20074;-80
2023/08/09 13:50:34;;;;;;;5.88;2.40;;;;;;;22.23;77.62;101519.41;5095420;28;20063;-82
2023/08/09 13:52:59;;;;;;;3.70;2.60;;;;;;;22.04;79.28;101517.56;5075524;28;20028;-82
2023/08/09 13:58:46;;;;;;;5.10;2.67;;;;;;;21.86;79.38;101527.06;5094017;28;20049;-82
2023/08/09 14:04:33;;;;;;;6.20;2.85;;;;;;;21.87;79.50;101534.13;5093989;28;20688;-83
2023/08/09 14:10:20;;;;;;;5.78;3.00;;;;;;;21.86;78.10;101521.63;5094598;28;20391;-82
2023/08/09 14:12:46;;;;;;;5.65;2.47;;;;;;;21.94;81.65;101527.31;5093258;28;20043;-82
2023/08/09 14:18:33;;;;;;;8.18;2.63;;;;;;;21.74;77.39;101537.41;5094757;28;20043;-80
2023/08/09 14:24:20;;;;;;;3.58;2.20;;;;;;;22.00;77.64;101543.69;5094743;28;20094;-80
2023/08/09 14:30:09;;;;;;;4.32;2.28;;;;;;;21.91;76.42;101549.66;5093626;28;20040;-80
2023/08/09 14:35:56;;;;;;;5.25;1.90;;;;;;;21.84;77.08;101549.13;5093034;28;20527;-79
2023/08/09 14:41:43;;;;;;;2.55;1.92;;;;;;;21.78;78.70;101561.09;5093122;28;20538;-79
2023/08/09 14:47:30;;;;;;;6.47;2.50;;;;;;;21.30;78.40;101565.09;5093723;28;20092;-78
2023/08/09 14:53:17;;;;;;;4.25;2.33;;;;;;;21.50;79.10;101556.97;5094489;28;20483;-80
2023/08/09 14:59:05;;;;;;;4.70;2.67;;;;;;;21.77;78.93;101551.31;5093453;28;20046;-78
2023/08/09 15:04:52;;;;;;;4.80;2.35;;;;;;;21.83;76.11;101566.53;5093057;28;20557;-80
2023/08/09 15:10:39;;;;;;;4.07;2.13;;;;;;;21.91;76.78;101573.34;5093536;28;20273;-79
2023/08/09 15:16:26;;;;;;;4.78;2.20;;;;;;;22.07;79.57;101593.28;5093780;28;20688;-76
2023/08/09 15:22:13;;;;;;;5.68;2.17;;;;;;;22.16;80.49;101603.34;5093389;28;20423;-79
2023/08/09 15:28:00;;;;;;;4.07;2.25;;;;;;;22.02;73.29;101598.72;5092897;28;20296;-81
2023/08/09 15:33:47;;;;;;;8.77;2.80;;;;;;;21.89;75.10;101610.94;5092657;28;20146;-77
2023/08/09 15:39:38;;;;;;;4.95;2.17;;;;;;;21.83;73.12;101610.13;5092698;28;20502;-80
2023/08/09 15:45:25;;;;;;;3.65;2.03;;;;;;;21.95;70.35;101601.66;5093054;28;20058;-78
2023/08/09 15:51:13;;;;;;;8.00;2.40;;;;;;;21.90;71.15;101616.09;5092460;28;20034;-78
2023/08/09 15:57:01;;;;;;;3.70;2.03;;;;;;;21.75;69.92;101601.66;5092590;28;20526;-78
2023/08/09 16:02:48;;;;;;;5.20;2.13;;;;;;;21.74;71.11;101616.38;5091723;28;20043;-76
2023/08/09 16:11:57;;;;;;;4.40;2.03;;;;;;;21.48;73.35;101612.78;5092410;28;20077;-77
2023/08/09 16:17:44;;;;;;;2.63;2.00;;;;;;;21.33;73.35;101616.25;5091564;28;20039;-77
2023/08/09 16:23:31;;;;;;;5.57;2.13;;;;;;;21.33;71.33;101616.25;5091626;28;20319;-77
2023/08/09 16:29:18;;;;;;;4.15;2.10;;;;;;;21.30;75.17;101622.22;5091547;28;20399;-77
2023/08/09 16:35:10;;;;;;;4.55;2.20;;;;;;;21.18;71.14;101627.88;5091457;28;20043;-76
2023/08/09 16:40:56;;;;;;;4.10;1.85;;;;;;;21.18;73.08;101630.59;5091362;28;20096;-77
2023/08/09 16:46:43;;;;;;;4.85;2.03;;;;;;;21.14;75.34;101645.00;5091677;28;20293;-78
2023/08/09 16:52:30;;;;;;;4.00;2.10;;;;;;;21.09;74.28;101644.94;5091728;28;20395;-77
2023/08/09 16:58:18;;;;;;;5.13;2.50;;;;;;;20.69;73.72;101640.91;5092188;28;20059;-79
2023/08/09 17:04:05;;;;;;;3.22;2.28;;;;;;;20.24;78.16;101653.06;5092251;28;20043;-80
2023/08/09 17:09:52;;;;;;;5.10;2.17;;;;;;;19.95;77.43;101666.09;5095501;28;20280;-79
2023/08/09 17:15:42;;;;;;;4.68;2.10;;;;;;;19.87;73.59;101663.81;5095243;28;20278;-81
2023/08/09 17:21:29;;;;;;;6.22;2.00;;;;;;;19.96;74.54;101665.03;5095060;28;20119;-77
2023/08/09 17:27:15;;;;;;;4.57;2.55;;;;;;;19.90;76.63;101663.31;5096516;28;20305;-80
2023/08/09 17:33:02;;;;;;;5.30;2.50;;;;;;;19.78;77.44;101663.47;5096543;28;20328;-80
2023/08/09 17:38:49;;;;;;;2.53;1.67;;;;;;;19.69;77.28;101661.47;5098415;28;20093;-80
2023/08/09 17:48:42;;;;;;;4.30;2.67;;;;;;;19.70;79.72;101680.22;5095652;28;20101;-78
2023/08/09 17:51:08;;;;;;;4.72;2.08;;;;;;;19.70;77.50;101668.53;5093568;28;20048;-80
2023/08/09 17:53:34;;;;;;;2.10;1.80;;;;;;;19.90;76.49;101679.59;5076251;28;20041;-78
2023/08/09 17:55:59;;;;;;;2.85;1.92;;;;;;;19.88;76.29;101679.03;5093892;28;20024;-80
2023/08/09 17:58:24;;;;;;;3.00;1.93;;;;;;;20.05;77.29;101685.19;5095477;28;20537;-80
2023/08/09 18:04:11;;;;;;;5.65;1.98;;;;;;;20.05;73.89;101690.63;5097143;28;20269;-79
2023/08/09 18:13:28;;;;;;;5.25;2.35;;;;;;;19.27;78.86;101701.88;5094703;28;20388;-80
2023/08/09 18:19:16;;;;;;;3.53;2.80;;;;;;;18.86;82.08;101699.41;5095755;28;20102;-77
2023/08/09 18:25:05;;;;;;;3.00;1.88;;;;;;;18.76;83.09;101707.34;5095360;28;20104;-81
2023/08/09 18:30:52;;;;;;;5.00;2.17;;;;;;;18.60;84.86;101705.47;5094288;28;20150;-80
2023/08/09 18:36:40;;;;;;;5.53;2.33;;;;;;;18.30;83.28;101715.78;5098456;28;20050;-79
2023/08/09 18:42:28;;;;;;;2.90;2.17;;;;;;;18.14;82.09;101726.31;5098284;28;20043;-79
2023/08/09 18:48:14;;;;;;;5.15;2.10;;;;;;;17.99;81.51;101728.75;5096048;28;20091;-77
2023/08/09 18:54:01;;;;;;;4.47;1.92;;;;;;;17.84;81.90;101725.72;5096293;28;20293;-80
2023/08/09 18:59:49;;;;;;;4.88;1.92;;;;;;;17.68;82.47;101730.03;5099539;28;20285;-80
2023/08/09 19:05:37;;;;;;;7.75;2.20;;;;;;;17.64;83.19;101736.94;5098540;28;20055;-79
2023/08/09 19:11:24;;;;;;;3.05;1.85;;;;;;;17.60;86.47;101746.56;5100808;28;20292;-80
2023/08/09 19:17:11;;;;;;;3.90;2.00;;;;;;;17.42;85.88;101749.44;5101282;28;20051;-79
2023/08/09 19:22:59;;;;;;;1.95;1.75;;;;;;;17.36;87.51;101762.03;5098230;28;20822;-79
2023/08/09 19:28:46;;;;;;;3.15;1.70;;;;;;;17.24;85.99;101753.91;5099339;28;20047;-79
2023/08/09 19:34:35;;;;;;;2.95;1.98;;;;;;;17.08;87.22;101760.03;5102188;28;20042;-79
2023/08/09 19:40:22;;;;;;;5.70;2.20;;;;;;;16.85;89.50;101760.84;5102835;28;20415;-80
2023/08/09 19:46:09;;;;;;;4.40;2.00;;;;;;;16.59;92.93;101763.94;5093947;28;20089;-80
2023/08/09 19:51:57;;;;;;;4.97;2.20;;;;;;;16.34;100.00;101770.31;5092550;28;20515;-79
2023/08/09 19:57:44;;;;;;;2.38;1.85;;;;;;;16.13;100.00;101762.72;5094187;28;20066;-83
2023/08/09 20:03:31;;;;;;;3.38;2.08;;;;;;;16.02;100.00;101776.97;5093408;28;20051;-76
2023/08/09 20:09:19;;;;;;;5.60;2.22;;;;;;;15.92;100.00;101777.53;5093211;28;20054;-81
2023/08/09 20:15:06;;;;;;;4.30;2.10;;;;;;;15.78;100.00;101779.53;5094537;28;20403;-81
2023/08/09 20:20:53;;;;;;;7.72;2.50;;;;;;;15.63;100.00;101784.50;5094608;28;20043;-83
2023/08/09 20:26:40;;;;;;;5.20;2.42;;;;;;;15.43;100.00;101781.16;5094797;28;20051;-78
2023/08/09 20:32:27;;;;;;;2.70;2.22;;;;;;;15.15;100.00;101784.31;5094625;28;20304;-80
2023/08/09 20:38:14;;;;;;;6.88;2.50;;;;;;;14.78;100.00;101778.00;5094350;28;20265;-80
2023/08/09 20:44:01;;;;;;;3.97;2.00;;;;;;;14.63;100.00;101778.31;5095067;28;20531;-78
2023/08/09 20:49:48;;;;;;;5.85;2.35;;;;;;;14.51;100.00;101775.50;5096039;28;20043;-80
2023/08/09 20:55:42;;;;;;;3.65;2.58;;;;;;;14.45;100.00;101776.34;5097557;28;20051;-82
2023/08/09 21:01:30;;;;;;;4.32;2.53;;;;;;;14.38;100.00;101770.16;5095052;28;20050;-81
2023/08/09 21:07:17;;;;;;;2.75;1.92;;;;;;;14.13;100.00;101780.00;5096095;28;20081;-81
2023/08/09 21:13:04;;;;;;;6.97;2.65;;;;;;;13.99;100.00;101775.75;5095471;28;20128;-76
2023/08/09 21:18:51;;;;;;;4.13;2.10;;;;;;;13.88;100.00;101790.69;5095573;28;20042;-76
2023/08/09 21:24:38;;;;;;;4.82;2.28;;;;;;;13.70;100.00;101804.78;5095628;28;20319;-77
2023/08/09 21:30:25;;;;;;;4.97;2.30;;;;;;;13.50;100.00;101806.69;5093665;28;20320;-80
2023/08/09 21:36:12;;;;;;;4.38;2.47;;;;;;;13.48;100.00;101806.06;5093755;28;20051;-80
2023/08/09 21:41:59;;;;;;;6.82;2.60;;;;;;;13.53;100.00;101808.94;5093999;28;20097;-79
2023/08/09 21:47:46;;;;;;;4.60;2.10;;;;;;;13.38;100.00;101811.06;5093989;28;20407;-80
2023/08/09 21:53:33;;;;;;;5.53;2.60;;;;;;;13.35;100.00;101806.09;5092924;28;20373;-81
2023/08/09 21:59:20;;;;;;;8.50;2.83;;;;;;;13.18;100.00;101805.69;5093987;28;20038;-80
2023/08/09 22:05:07;;;;;;;6.22;2.53;;;;;;;12.94;100.00;101815.97;5093554;28;20363;-80
2023/08/09 22:10:54;;;;;;;5.15;2.50;;;;;;;12.88;100.00;101806.06;5094283;28;20042;-80
2023/08/09 22:16:42;;;;;;;9.98;3.58;;;;;;;12.84;100.00;101802.16;5093535;28;20395;-80
2023/08/09 22:22:29;;;;;;;5.63;2.42;;;;;;;12.62;100.00;101808.72;5093375;28;20059;-78
2023/08/09 22:28:16;;;;;;;5.05;2.85;;;;;;;12.53;100.00;101800.03;5093437;28;20344;-78
2023/08/09 22:34:03;;;;;;;4.13;3.13;;;;;;;12.46;100.00;101809.09;5094274;28;20137;-79
2023/08/09 22:39:50;;;;;;;6.38;2.60;;;;;;;12.43;100.00;101818.34;5093638;28;20081;-78
2023/08/09 22:45:37;;;;;;;7.97;2.88;;;;;;;12.32;100.00;101810.91;5092975;28;20335;-79
2023/08/09 22:51:24;;;;;;;6.05;2.53;;;;;;;12.32;100.00;101825.16;5092660;28;20108;-82
2023/08/09 22:57:11;;;;;;;6.45;2.55;;;;;;;12.29;100.00;101832.78;5093157;28;20281;-80
2023/08/09 23:02:59;;;;;;;4.93;2.85;;;;;;;12.23;100.00;101833.56;5093083;28;20101;-81
2023/08/09 23:08:45;;;;;;;3.88;2.42;;;;;;;12.26;100.00;101831.31;5092639;28;20089;-82
2023/08/09 23:14:32;;;;;;;5.95;2.50;;;;;;;12.24;100.00;101832.56;5092898;28;20106;-81